sensor_id;sensor_type;location;lat;lon;timestamp;temperature;humidity
44775;DHT22;31340;51.402;0.016;2022-11-30T00:01:22;10.20;99.90
44775;DHT22;31340;51.402;0.016;2022-11-30T00:03:55;10.20;99.90
44775;DHT22;31340;51.402;0.016;2022-11-30T00:06:23;10.20;99.90
44775;DHT22;31340;51.402;0.016;2022-11-30T00:08:56;10.20;99.90
44775;DHT22;31340;51.402;0.016;2022-11-30T00:11:25;10.20;99.90
44775;DHT22;31340;51.402;0.016;2022-11-30T00:13:53;10.10;99.90
44775;DHT22;31340;51.402;0.016;2022-11-30T00:16:21;10.20;99.90
44775;DHT22;31340;51.402;0.016;2022-11-30T00:18:48;10.20;99.90
44775;DHT22;31340;51.402;0.016;2022-11-30T00:21:16;10.20;99.90
44775;DHT22;31340;51.402;0.016;2022-11-30T00:23:45;10.20;99.90
44775;DHT22;31340;51.402;0.016;2022-11-30T00:26:15;10.20;99.90
44775;DHT22;31340;51.402;0.016;2022-11-30T00:28:44;10.20;99.90
44775;DHT22;31340;51.402;0.016;2022-11-30T00:31:14;10.20;99.90
44775;DHT22;31340;51.402;0.016;2022-11-30T00:33:43;10.20;99.90
44775;DHT22;31340;51.402;0.016;2022-11-30T00:36:16;10.20;99.90
44775;DHT22;31340;51.402;0.016;2022-11-30T00:38:44;10.10;99.90
44775;DHT22;31340;51.402;0.016;2022-11-30T00:41:12;10.10;99.90
44775;DHT22;31340;51.402;0.016;2022-11-30T00:43:40;10.20;99.90
44775;DHT22;31340;51.402;0.016;2022-11-30T00:46:07;10.10;99.90
44775;DHT22;31340;51.402;0.016;2022-11-30T00:48:37;10.10;99.90
44775;DHT22;31340;51.402;0.016;2022-11-30T00:51:06;10.10;99.90
44775;DHT22;31340;51.402;0.016;2022-11-30T00:53:34;10.10;99.90
44775;DHT22;31340;51.402;0.016;2022-11-30T00:56:02;10.10;99.90
44775;DHT22;31340;51.402;0.016;2022-11-30T00:58:30;10.10;99.90
44775;DHT22;31340;51.402;0.016;2022-11-30T01:00:57;10.10;99.90
44775;DHT22;31340;51.402;0.016;2022-11-30T01:03:25;10.10;99.90
44775;DHT22;31340;51.402;0.016;2022-11-30T01:05:53;10.10;99.90
44775;DHT22;31340;51.402;0.016;2022-11-30T01:08:20;10.10;99.90
44775;DHT22;31340;51.402;0.016;2022-11-30T01:10:48;10.10;99.90
44775;DHT22;31340;51.402;0.016;2022-11-30T01:13:19;10.10;99.90
44775;DHT22;31340;51.402;0.016;2022-11-30T01:15:47;10.10;99.90
44775;DHT22;31340;51.402;0.016;2022-11-30T01:18:15;10.10;99.90
44775;DHT22;31340;51.402;0.016;2022-11-30T01:20:42;10.10;99.90
44775;DHT22;31340;51.402;0.016;2022-11-30T01:23:10;10.10;99.90
44775;DHT22;31340;51.402;0.016;2022-11-30T01:25:38;10.10;99.90
44775;DHT22;31340;51.402;0.016;2022-11-30T01:28:07;10.00;99.90
44775;DHT22;31340;51.402;0.016;2022-11-30T01:30:35;10.10;99.90
44775;DHT22;31340;51.402;0.016;2022-11-30T01:33:04;10.00;99.90
44775;DHT22;31340;51.402;0.016;2022-11-30T01:35:31;10.00;99.90
44775;DHT22;31340;51.402;0.016;2022-11-30T01:37:59;10.10;99.90
44775;DHT22;31340;51.402;0.016;2022-11-30T01:40:27;10.10;99.90
44775;DHT22;31340;51.402;0.016;2022-11-30T01:42:54;10.10;99.90
44775;DHT22;31340;51.402;0.016;2022-11-30T01:45:22;10.10;99.90
44775;DHT22;31340;51.402;0.016;2022-11-30T01:47:52;10.10;99.90
44775;DHT22;31340;51.402;0.016;2022-11-30T01:50:39;10.00;99.90
44775;DHT22;31340;51.402;0.016;2022-11-30T01:53:07;10.00;99.90
44775;DHT22;31340;51.402;0.016;2022-11-30T01:55:43;10.00;99.90
44775;DHT22;31340;51.402;0.016;2022-11-30T01:58:24;10.10;99.90
44775;DHT22;31340;51.402;0.016;2022-11-30T02:00:52;10.00;99.90
44775;DHT22;31340;51.402;0.016;2022-11-30T02:06:23;10.00;99.90
44775;DHT22;31340;51.402;0.016;2022-11-30T02:08:52;10.00;99.90
44775;DHT22;31340;51.402;0.016;2022-11-30T02:11:21;10.00;99.90
44775;DHT22;31340;51.402;0.016;2022-11-30T02:19:53;10.00;99.90
44775;DHT22;31340;51.402;0.016;2022-11-30T02:22:46;10.00;99.90
44775;DHT22;31340;51.402;0.016;2022-11-30T02:30:35;9.90;99.90
44775;DHT22;31340;51.402;0.016;2022-11-30T02:33:12;9.90;99.90
44775;DHT22;31340;51.402;0.016;2022-11-30T02:35:45;9.90;99.90
44775;DHT22;31340;51.402;0.016;2022-11-30T02:38:22;9.90;99.90
44775;DHT22;31340;51.402;0.016;2022-11-30T02:40:50;9.80;99.90
44775;DHT22;31340;51.402;0.016;2022-11-30T02:43:19;9.80;99.90
44775;DHT22;31340;51.402;0.016;2022-11-30T02:48:33;9.80;99.90
44775;DHT22;31340;51.402;0.016;2022-11-30T02:51:03;9.80;99.90
44775;DHT22;31340;51.402;0.016;2022-11-30T02:53:34;9.70;99.90
44775;DHT22;31340;51.402;0.016;2022-11-30T02:56:02;9.70;99.90
44775;DHT22;31340;51.402;0.016;2022-11-30T02:58:30;9.70;99.90
44775;DHT22;31340;51.402;0.016;2022-11-30T03:00:58;9.70;99.90
44775;DHT22;31340;51.402;0.016;2022-11-30T03:03:25;9.70;99.90
44775;DHT22;31340;51.402;0.016;2022-11-30T03:05:53;9.60;99.90
44775;DHT22;31340;51.402;0.016;2022-11-30T03:08:20;9.70;99.90
44775;DHT22;31340;51.402;0.016;2022-11-30T03:10:48;9.60;99.90
44775;DHT22;31340;51.402;0.016;2022-11-30T03:13:15;9.60;99.90
44775;DHT22;31340;51.402;0.016;2022-11-30T03:15:43;9.60;99.90
44775;DHT22;31340;51.402;0.016;2022-11-30T03:18:10;9.60;99.90
44775;DHT22;31340;51.402;0.016;2022-11-30T03:20:41;9.60;99.90
44775;DHT22;31340;51.402;0.016;2022-11-30T03:23:08;9.60;99.90
44775;DHT22;31340;51.402;0.016;2022-11-30T03:25:36;9.60;99.90
44775;DHT22;31340;51.402;0.016;2022-11-30T03:28:04;9.60;99.90
44775;DHT22;31340;51.402;0.016;2022-11-30T03:30:31;9.60;99.90
44775;DHT22;31340;51.402;0.016;2022-11-30T03:32:59;9.60;99.90
44775;DHT22;31340;51.402;0.016;2022-11-30T03:35:26;9.70;99.90
44775;DHT22;31340;51.402;0.016;2022-11-30T03:37:54;9.60;99.90
44775;DHT22;31340;51.402;0.016;2022-11-30T03:40:22;9.60;99.90
44775;DHT22;31340;51.402;0.016;2022-11-30T03:42:49;9.60;99.90
44775;DHT22;31340;51.402;0.016;2022-11-30T03:45:16;9.60;99.90
44775;DHT22;31340;51.402;0.016;2022-11-30T03:47:44;9.60;99.90
44775;DHT22;31340;51.402;0.016;2022-11-30T03:50:12;9.50;99.90
44775;DHT22;31340;51.402;0.016;2022-11-30T03:52:39;9.50;99.90
44775;DHT22;31340;51.402;0.016;2022-11-30T03:55:07;9.60;99.90
44775;DHT22;31340;51.402;0.016;2022-11-30T03:57:35;9.50;99.90
44775;DHT22;31340;51.402;0.016;2022-11-30T04:00:04;9.60;99.90
44775;DHT22;31340;51.402;0.016;2022-11-30T04:02:38;9.60;99.90
44775;DHT22;31340;51.402;0.016;2022-11-30T04:05:11;9.50;99.90
44775;DHT22;31340;51.402;0.016;2022-11-30T04:07:38;9.60;99.90
44775;DHT22;31340;51.402;0.016;2022-11-30T04:10:07;9.60;99.90
44775;DHT22;31340;51.402;0.016;2022-11-30T04:12:35;9.60;99.90
44775;DHT22;31340;51.402;0.016;2022-11-30T04:15:03;9.60;99.90
44775;DHT22;31340;51.402;0.016;2022-11-30T04:17:30;9.60;99.90
44775;DHT22;31340;51.402;0.016;2022-11-30T04:19:58;9.60;99.90
44775;DHT22;31340;51.402;0.016;2022-11-30T04:22:25;9.60;99.90
44775;DHT22;31340;51.402;0.016;2022-11-30T04:24:53;9.60;99.90
44775;DHT22;31340;51.402;0.016;2022-11-30T04:27:20;9.60;99.90
44775;DHT22;31340;51.402;0.016;2022-11-30T04:29:48;9.70;99.90
44775;DHT22;31340;51.402;0.016;2022-11-30T04:32:15;9.70;99.90
44775;DHT22;31340;51.402;0.016;2022-11-30T04:34:43;9.60;99.90
44775;DHT22;31340;51.402;0.016;2022-11-30T04:37:11;9.70;99.90
44775;DHT22;31340;51.402;0.016;2022-11-30T04:39:38;9.80;99.90
44775;DHT22;31340;51.402;0.016;2022-11-30T04:42:06;9.70;99.90
44775;DHT22;31340;51.402;0.016;2022-11-30T04:44:34;9.70;99.90
44775;DHT22;31340;51.402;0.016;2022-11-30T04:47:01;9.80;99.90
44775;DHT22;31340;51.402;0.016;2022-11-30T04:49:29;9.80;99.90
44775;DHT22;31340;51.402;0.016;2022-11-30T04:51:56;9.70;99.90
44775;DHT22;31340;51.402;0.016;2022-11-30T04:54:24;9.70;99.90
44775;DHT22;31340;51.402;0.016;2022-11-30T04:56:52;9.70;99.90
44775;DHT22;31340;51.402;0.016;2022-11-30T04:59:19;9.70;99.90
44775;DHT22;31340;51.402;0.016;2022-11-30T05:01:46;9.70;99.90
44775;DHT22;31340;51.402;0.016;2022-11-30T05:04:14;9.80;99.90
44775;DHT22;31340;51.402;0.016;2022-11-30T05:06:42;9.70;99.90
44775;DHT22;31340;51.402;0.016;2022-11-30T05:09:09;9.70;99.90
44775;DHT22;31340;51.402;0.016;2022-11-30T05:11:37;9.70;99.90
44775;DHT22;31340;51.402;0.016;2022-11-30T05:14:04;9.70;99.90
44775;DHT22;31340;51.402;0.016;2022-11-30T05:16:32;9.70;99.90
44775;DHT22;31340;51.402;0.016;2022-11-30T05:18:59;9.80;99.90
44775;DHT22;31340;51.402;0.016;2022-11-30T05:21:27;9.70;99.90
44775;DHT22;31340;51.402;0.016;2022-11-30T05:23:54;9.70;99.90
44775;DHT22;31340;51.402;0.016;2022-11-30T05:26:22;9.70;99.90
44775;DHT22;31340;51.402;0.016;2022-11-30T05:28:49;9.70;99.90
44775;DHT22;31340;51.402;0.016;2022-11-30T05:31:17;9.70;99.90
44775;DHT22;31340;51.402;0.016;2022-11-30T05:33:52;9.70;99.90
44775;DHT22;31340;51.402;0.016;2022-11-30T05:36:19;9.70;99.90
44775;DHT22;31340;51.402;0.016;2022-11-30T05:38:47;9.70;99.90
44775;DHT22;31340;51.402;0.016;2022-11-30T05:41:15;9.70;99.90
44775;DHT22;31340;51.402;0.016;2022-11-30T05:43:42;9.70;99.90
44775;DHT22;31340;51.402;0.016;2022-11-30T05:46:10;9.70;99.90
44775;DHT22;31340;51.402;0.016;2022-11-30T05:48:38;9.70;99.90
44775;DHT22;31340;51.402;0.016;2022-11-30T05:53:33;9.70;99.90
44775;DHT22;31340;51.402;0.016;2022-11-30T05:56:06;9.70;99.90
44775;DHT22;31340;51.402;0.016;2022-11-30T05:58:34;9.70;99.90
44775;DHT22;31340;51.402;0.016;2022-11-30T06:01:01;9.70;99.90
44775;DHT22;31340;51.402;0.016;2022-11-30T06:03:31;9.70;99.90
44775;DHT22;31340;51.402;0.016;2022-11-30T06:05:58;9.70;99.90
44775;DHT22;31340;51.402;0.016;2022-11-30T06:08:26;9.70;99.90
44775;DHT22;31340;51.402;0.016;2022-11-30T06:10:59;9.70;99.90
44775;DHT22;31340;51.402;0.016;2022-11-30T06:13:26;9.70;99.90
44775;DHT22;31340;51.402;0.016;2022-11-30T06:15:58;9.70;99.90
44775;DHT22;31340;51.402;0.016;2022-11-30T06:18:26;9.70;99.90
44775;DHT22;31340;51.402;0.016;2022-11-30T06:20:54;9.60;99.90
44775;DHT22;31340;51.402;0.016;2022-11-30T06:23:25;9.60;99.90
44775;DHT22;31340;51.402;0.016;2022-11-30T06:25:52;9.60;99.90
44775;DHT22;31340;51.402;0.016;2022-11-30T06:28:20;9.70;99.90
44775;DHT22;31340;51.402;0.016;2022-11-30T06:30:47;9.60;99.90
44775;DHT22;31340;51.402;0.016;2022-11-30T06:33:15;9.60;99.90
44775;DHT22;31340;51.402;0.016;2022-11-30T06:35:47;9.60;99.90
44775;DHT22;31340;51.402;0.016;2022-11-30T06:38:15;9.50;99.90
44775;DHT22;31340;51.402;0.016;2022-11-30T06:40:42;9.60;99.90
44775;DHT22;31340;51.402;0.016;2022-11-30T06:43:10;9.50;99.90
44775;DHT22;31340;51.402;0.016;2022-11-30T06:45:37;9.60;99.90
44775;DHT22;31340;51.402;0.016;2022-11-30T06:48:05;9.60;99.90
44775;DHT22;31340;51.402;0.016;2022-11-30T06:50:33;9.40;99.90
44775;DHT22;31340;51.402;0.016;2022-11-30T06:53:00;9.50;99.90
44775;DHT22;31340;51.402;0.016;2022-11-30T06:55:28;9.50;99.90
44775;DHT22;31340;51.402;0.016;2022-11-30T06:58:08;9.50;99.90
44775;DHT22;31340;51.402;0.016;2022-11-30T07:00:36;9.50;99.90
44775;DHT22;31340;51.402;0.016;2022-11-30T07:03:04;9.50;99.90
44775;DHT22;31340;51.402;0.016;2022-11-30T07:05:34;9.50;99.90
44775;DHT22;31340;51.402;0.016;2022-11-30T07:08:06;9.40;99.90
44775;DHT22;31340;51.402;0.016;2022-11-30T07:10:35;9.50;99.90
44775;DHT22;31340;51.402;0.016;2022-11-30T07:13:08;9.50;99.90
44775;DHT22;31340;51.402;0.016;2022-11-30T07:15:36;9.50;99.90
44775;DHT22;31340;51.402;0.016;2022-11-30T07:18:03;9.50;99.90
44775;DHT22;31340;51.402;0.016;2022-11-30T07:20:32;9.50;99.90
44775;DHT22;31340;51.402;0.016;2022-11-30T07:23:00;9.50;99.90
44775;DHT22;31340;51.402;0.016;2022-11-30T07:25:52;9.50;99.90
44775;DHT22;31340;51.402;0.016;2022-11-30T07:28:37;9.40;99.90
44775;DHT22;31340;51.402;0.016;2022-11-30T07:31:20;9.40;99.90
44775;DHT22;31340;51.402;0.016;2022-11-30T07:33:49;9.40;99.90
44775;DHT22;31340;51.402;0.016;2022-11-30T07:36:18;9.40;99.90
44775;DHT22;31340;51.402;0.016;2022-11-30T07:38:47;9.40;99.90
44775;DHT22;31340;51.402;0.016;2022-11-30T07:41:15;9.40;99.90
44775;DHT22;31340;51.402;0.016;2022-11-30T07:43:43;9.40;99.90
44775;DHT22;31340;51.402;0.016;2022-11-30T07:46:11;9.40;99.90
44775;DHT22;31340;51.402;0.016;2022-11-30T07:48:39;9.30;99.90
44775;DHT22;31340;51.402;0.016;2022-11-30T07:51:12;9.30;99.90
44775;DHT22;31340;51.402;0.016;2022-11-30T07:53:40;9.30;99.90
44775;DHT22;31340;51.402;0.016;2022-11-30T07:56:13;9.40;99.90
44775;DHT22;31340;51.402;0.016;2022-11-30T07:58:43;9.30;99.90
44775;DHT22;31340;51.402;0.016;2022-11-30T08:01:13;9.20;99.90
44775;DHT22;31340;51.402;0.016;2022-11-30T08:03:41;9.30;99.90
44775;DHT22;31340;51.402;0.016;2022-11-30T08:06:11;9.30;99.90
44775;DHT22;31340;51.402;0.016;2022-11-30T08:08:42;9.30;99.90
44775;DHT22;31340;51.402;0.016;2022-11-30T08:11:12;9.30;99.90
44775;DHT22;31340;51.402;0.016;2022-11-30T08:13:40;9.20;99.90
44775;DHT22;31340;51.402;0.016;2022-11-30T08:16:13;9.20;99.90
44775;DHT22;31340;51.402;0.016;2022-11-30T08:18:42;9.20;99.90
44775;DHT22;31340;51.402;0.016;2022-11-30T08:21:11;9.20;99.90
44775;DHT22;31340;51.402;0.016;2022-11-30T08:23:41;9.10;99.90
44775;DHT22;31340;51.402;0.016;2022-11-30T08:28:37;9.10;99.90
44775;DHT22;31340;51.402;0.016;2022-11-30T08:31:09;9.10;99.90
44775;DHT22;31340;51.402;0.016;2022-11-30T08:33:37;9.10;99.90
44775;DHT22;31340;51.402;0.016;2022-11-30T08:36:06;9.10;99.90
44775;DHT22;31340;51.402;0.016;2022-11-30T08:38:35;9.10;99.90
44775;DHT22;31340;51.402;0.016;2022-11-30T08:41:03;9.10;99.90
44775;DHT22;31340;51.402;0.016;2022-11-30T08:43:31;9.10;99.90
44775;DHT22;31340;51.402;0.016;2022-11-30T08:46:00;9.10;99.90
44775;DHT22;31340;51.402;0.016;2022-11-30T08:48:28;9.10;99.90
44775;DHT22;31340;51.402;0.016;2022-11-30T08:51:04;9.10;99.90
44775;DHT22;31340;51.402;0.016;2022-11-30T08:53:32;9.00;99.90
44775;DHT22;31340;51.402;0.016;2022-11-30T08:56:02;9.10;99.90
44775;DHT22;31340;51.402;0.016;2022-11-30T08:58:32;9.10;99.90
44775;DHT22;31340;51.402;0.016;2022-11-30T09:01:21;9.00;99.90
44775;DHT22;31340;51.402;0.016;2022-11-30T09:03:55;9.00;99.90
44775;DHT22;31340;51.402;0.016;2022-11-30T09:06:28;9.00;99.90
44775;DHT22;31340;51.402;0.016;2022-11-30T09:08:57;9.00;99.90
44775;DHT22;31340;51.402;0.016;2022-11-30T09:11:30;9.10;99.90
44775;DHT22;31340;51.402;0.016;2022-11-30T09:14:00;9.10;99.90
44775;DHT22;31340;51.402;0.016;2022-11-30T09:16:28;9.10;99.90
44775;DHT22;31340;51.402;0.016;2022-11-30T09:18:55;9.10;99.90
44775;DHT22;31340;51.402;0.016;2022-11-30T09:21:23;9.20;99.90
44775;DHT22;31340;51.402;0.016;2022-11-30T09:23:53;9.20;99.90
44775;DHT22;31340;51.402;0.016;2022-11-30T09:26:22;9.20;99.90
44775;DHT22;31340;51.402;0.016;2022-11-30T09:28:52;9.30;99.90
44775;DHT22;31340;51.402;0.016;2022-11-30T09:31:25;9.30;99.90
44775;DHT22;31340;51.402;0.016;2022-11-30T09:33:55;9.30;99.90
44775;DHT22;31340;51.402;0.016;2022-11-30T09:36:25;9.30;99.90
44775;DHT22;31340;51.402;0.016;2022-11-30T09:38:55;9.40;99.90
44775;DHT22;31340;51.402;0.016;2022-11-30T09:41:59;9.40;99.90
44775;DHT22;31340;51.402;0.016;2022-11-30T09:50:15;9.40;99.90
44775;DHT22;31340;51.402;0.016;2022-11-30T09:53:14;9.50;99.90
44775;DHT22;31340;51.402;0.016;2022-11-30T09:55:40;9.50;99.90
44775;DHT22;31340;51.402;0.016;2022-11-30T09:58:20;9.50;99.90
44775;DHT22;31340;51.402;0.016;2022-11-30T10:00:50;9.50;99.90
44775;DHT22;31340;51.402;0.016;2022-11-30T10:03:18;9.50;99.90
44775;DHT22;31340;51.402;0.016;2022-11-30T10:20:05;9.70;99.90
44775;DHT22;31340;51.402;0.016;2022-11-30T10:22:51;9.70;99.90
44775;DHT22;31340;51.402;0.016;2022-11-30T10:28:20;9.80;99.90
44775;DHT22;31340;51.402;0.016;2022-11-30T10:31:11;9.80;99.90
44775;DHT22;31340;51.402;0.016;2022-11-30T10:33:44;9.80;99.90
44775;DHT22;31340;51.402;0.016;2022-11-30T10:36:38;9.90;99.90
44775;DHT22;31340;51.402;0.016;2022-11-30T10:39:29;10.00;99.90
44775;DHT22;31340;51.402;0.016;2022-11-30T10:42:18;10.00;99.90
44775;DHT22;31340;51.402;0.016;2022-11-30T10:45:04;10.00;99.90
44775;DHT22;31340;51.402;0.016;2022-11-30T10:47:33;10.00;99.90
44775;DHT22;31340;51.402;0.016;2022-11-30T10:50:06;10.00;99.90
44775;DHT22;31340;51.402;0.016;2022-11-30T10:52:46;10.00;99.90
44775;DHT22;31340;51.402;0.016;2022-11-30T10:55:23;10.00;99.90
44775;DHT22;31340;51.402;0.016;2022-11-30T10:58:27;10.00;99.90
44775;DHT22;31340;51.402;0.016;2022-11-30T11:01:07;10.10;99.90
44775;DHT22;31340;51.402;0.016;2022-11-30T11:03:36;10.10;99.90
44775;DHT22;31340;51.402;0.016;2022-11-30T11:06:19;10.10;99.90
44775;DHT22;31340;51.402;0.016;2022-11-30T11:08:48;10.10;99.90
44775;DHT22;31340;51.402;0.016;2022-11-30T11:11:32;10.20;99.90
44775;DHT22;31340;51.402;0.016;2022-11-30T11:14:15;10.20;99.90
44775;DHT22;31340;51.402;0.016;2022-11-30T11:17:02;10.20;99.90
44775;DHT22;31340;51.402;0.016;2022-11-30T11:19:39;10.20;99.90
44775;DHT22;31340;51.402;0.016;2022-11-30T11:22:22;10.30;99.90
44775;DHT22;31340;51.402;0.016;2022-11-30T11:25:40;10.20;99.90
44775;DHT22;31340;51.402;0.016;2022-11-30T11:27:42;10.20;99.90
44775;DHT22;31340;51.402;0.016;2022-11-30T11:38:24;10.40;99.90
44775;DHT22;31340;51.402;0.016;2022-11-30T11:41:04;10.40;99.90
44775;DHT22;31340;51.402;0.016;2022-11-30T11:46:23;10.50;99.90
44775;DHT22;31340;51.402;0.016;2022-11-30T11:49:00;10.50;99.90
44775;DHT22;31340;51.402;0.016;2022-11-30T11:51:37;10.60;99.90
44775;DHT22;31340;51.402;0.016;2022-11-30T11:56:52;10.60;99.90
44775;DHT22;31340;51.402;0.016;2022-11-30T12:04:49;10.80;99.90
44775;DHT22;31340;51.402;0.016;2022-11-30T12:07:25;10.80;99.90
44775;DHT22;31340;51.402;0.016;2022-11-30T12:13:00;10.80;99.90
44775;DHT22;31340;51.402;0.016;2022-11-30T12:15:31;10.90;99.90
44775;DHT22;31340;51.402;0.016;2022-11-30T12:18:20;10.90;99.90
44775;DHT22;31340;51.402;0.016;2022-11-30T12:46:23;11.10;99.90
44775;DHT22;31340;51.402;0.016;2022-11-30T12:51:41;11.20;99.90
44775;DHT22;31340;51.402;0.016;2022-11-30T13:00:08;11.20;99.90
44775;DHT22;31340;51.402;0.016;2022-11-30T13:05:58;11.20;99.90
44775;DHT22;31340;51.402;0.016;2022-11-30T13:08:41;11.10;99.90
44775;DHT22;31340;51.402;0.016;2022-11-30T13:11:17;11.10;99.90
44775;DHT22;31340;51.402;0.016;2022-11-30T13:13:53;11.10;99.90
44775;DHT22;31340;51.402;0.016;2022-11-30T13:16:23;11.10;99.90
44775;DHT22;31340;51.402;0.016;2022-11-30T13:18:58;11.10;99.90
44775;DHT22;31340;51.402;0.016;2022-11-30T13:21:33;11.10;99.90
44775;DHT22;31340;51.402;0.016;2022-11-30T13:27:21;11.10;99.90
44775;DHT22;31340;51.402;0.016;2022-11-30T13:29:58;11.10;99.90
44775;DHT22;31340;51.402;0.016;2022-11-30T13:32:32;11.20;99.90
44775;DHT22;31340;51.402;0.016;2022-11-30T13:38:15;11.10;99.90
44775;DHT22;31340;51.402;0.016;2022-11-30T13:41:05;11.10;99.90
44775;DHT22;31340;51.402;0.016;2022-11-30T13:43:46;11.10;99.90
44775;DHT22;31340;51.402;0.016;2022-11-30T13:46:18;11.10;99.90
44775;DHT22;31340;51.402;0.016;2022-11-30T13:48:47;11.10;99.90
44775;DHT22;31340;51.402;0.016;2022-11-30T13:51:35;11.10;99.90
44775;DHT22;31340;51.402;0.016;2022-11-30T13:59:52;11.10;99.90
44775;DHT22;31340;51.402;0.016;2022-11-30T14:23:13;11.10;99.90
44775;DHT22;31340;51.402;0.016;2022-11-30T14:25:47;11.10;99.90
44775;DHT22;31340;51.402;0.016;2022-11-30T14:28:18;11.10;99.90
44775;DHT22;31340;51.402;0.016;2022-11-30T14:30:47;11.10;99.90
44775;DHT22;31340;51.402;0.016;2022-11-30T14:33:18;11.20;99.90
44775;DHT22;31340;51.402;0.016;2022-11-30T14:35:53;11.20;99.90
44775;DHT22;31340;51.402;0.016;2022-11-30T14:38:28;11.20;99.90
44775;DHT22;31340;51.402;0.016;2022-11-30T14:40:57;11.30;99.90
44775;DHT22;31340;51.402;0.016;2022-11-30T14:43:25;11.30;99.90
44775;DHT22;31340;51.402;0.016;2022-11-30T14:46:01;11.30;99.90
44775;DHT22;31340;51.402;0.016;2022-11-30T14:48:33;11.50;99.90
44775;DHT22;31340;51.402;0.016;2022-11-30T14:51:02;11.50;99.90
44775;DHT22;31340;51.402;0.016;2022-11-30T14:58:52;11.40;99.90
44775;DHT22;31340;51.402;0.016;2022-11-30T15:01:27;11.40;99.90
44775;DHT22;31340;51.402;0.016;2022-11-30T15:04:03;11.40;99.90
44775;DHT22;31340;51.402;0.016;2022-11-30T15:06:32;11.30;99.90
44775;DHT22;31340;51.402;0.016;2022-11-30T15:09:00;11.30;99.90
44775;DHT22;31340;51.402;0.016;2022-11-30T15:11:29;11.30;99.90
44775;DHT22;31340;51.402;0.016;2022-11-30T15:14:07;11.30;99.90
44775;DHT22;31340;51.402;0.016;2022-11-30T15:16:36;11.10;99.90
44775;DHT22;31340;51.402;0.016;2022-11-30T15:19:24;11.10;99.90
44775;DHT22;31340;51.402;0.016;2022-11-30T15:21:53;11.10;99.90
44775;DHT22;31340;51.402;0.016;2022-11-30T15:24:21;11.00;99.90
44775;DHT22;31340;51.402;0.016;2022-11-30T15:26:59;11.00;99.90
44775;DHT22;31340;51.402;0.016;2022-11-30T15:29:39;10.90;99.90
44775;DHT22;31340;51.402;0.016;2022-11-30T15:32:20;10.80;99.90
44775;DHT22;31340;51.402;0.016;2022-11-30T15:34:54;10.80;99.90
44775;DHT22;31340;51.402;0.016;2022-11-30T15:37:32;10.80;99.90
44775;DHT22;31340;51.402;0.016;2022-11-30T15:40:02;10.70;99.90
44775;DHT22;31340;51.402;0.016;2022-11-30T15:42:34;10.70;99.90
44775;DHT22;31340;51.402;0.016;2022-11-30T15:45:20;10.70;99.90
44775;DHT22;31340;51.402;0.016;2022-11-30T15:47:49;10.60;99.90
44775;DHT22;31340;51.402;0.016;2022-11-30T15:50:38;10.60;99.90
44775;DHT22;31340;51.402;0.016;2022-11-30T15:56:07;10.50;99.90
44775;DHT22;31340;51.402;0.016;2022-11-30T15:58:40;10.40;99.90
44775;DHT22;31340;51.402;0.016;2022-11-30T16:01:15;10.30;99.90
44775;DHT22;31340;51.402;0.016;2022-11-30T16:06:28;10.20;99.90
44775;DHT22;31340;51.402;0.016;2022-11-30T16:08:57;10.10;99.90
44775;DHT22;31340;51.402;0.016;2022-11-30T16:11:25;10.00;99.90
44775;DHT22;31340;51.402;0.016;2022-11-30T16:13:53;10.00;99.90
44775;DHT22;31340;51.402;0.016;2022-11-30T16:16:25;9.90;99.90
44775;DHT22;31340;51.402;0.016;2022-11-30T16:18:54;9.80;99.90
44775;DHT22;31340;51.402;0.016;2022-11-30T16:21:22;9.80;99.90
44775;DHT22;31340;51.402;0.016;2022-11-30T16:23:49;9.80;99.90
44775;DHT22;31340;51.402;0.016;2022-11-30T16:26:18;9.70;99.90
44775;DHT22;31340;51.402;0.016;2022-11-30T16:29:06;9.70;99.90
44775;DHT22;31340;51.402;0.016;2022-11-30T16:31:34;9.60;99.90
44775;DHT22;31340;51.402;0.016;2022-11-30T16:34:03;9.60;99.90
44775;DHT22;31340;51.402;0.016;2022-11-30T16:36:35;9.60;99.90
44775;DHT22;31340;51.402;0.016;2022-11-30T16:39:03;9.50;99.90
44775;DHT22;31340;51.402;0.016;2022-11-30T16:41:33;9.50;99.90
44775;DHT22;31340;51.402;0.016;2022-11-30T16:44:10;9.40;99.90
44775;DHT22;31340;51.402;0.016;2022-11-30T16:46:39;9.40;99.90
44775;DHT22;31340;51.402;0.016;2022-11-30T16:49:07;9.40;99.90
44775;DHT22;31340;51.402;0.016;2022-11-30T16:51:35;9.30;99.90
44775;DHT22;31340;51.402;0.016;2022-11-30T16:54:03;9.30;99.90
44775;DHT22;31340;51.402;0.016;2022-11-30T16:56:31;9.20;99.90
44775;DHT22;31340;51.402;0.016;2022-11-30T16:58:58;9.20;99.90
44775;DHT22;31340;51.402;0.016;2022-11-30T17:01:30;9.20;99.90
44775;DHT22;31340;51.402;0.016;2022-11-30T17:04:22;9.20;99.90
44775;DHT22;31340;51.402;0.016;2022-11-30T17:06:52;9.10;99.90
44775;DHT22;31340;51.402;0.016;2022-11-30T17:09:28;8.90;99.90
44775;DHT22;31340;51.402;0.016;2022-11-30T17:11:56;9.10;99.90
44775;DHT22;31340;51.402;0.016;2022-11-30T17:14:24;9.10;99.90
44775;DHT22;31340;51.402;0.016;2022-11-30T17:16:52;9.10;99.90
44775;DHT22;31340;51.402;0.016;2022-11-30T17:19:21;9.00;99.90
44775;DHT22;31340;51.402;0.016;2022-11-30T17:21:51;9.00;99.90
44775;DHT22;31340;51.402;0.016;2022-11-30T17:24:19;9.00;99.90
44775;DHT22;31340;51.402;0.016;2022-11-30T17:26:46;9.00;99.90
44775;DHT22;31340;51.402;0.016;2022-11-30T17:29:14;9.00;99.90
44775;DHT22;31340;51.402;0.016;2022-11-30T17:31:42;9.00;99.90
44775;DHT22;31340;51.402;0.016;2022-11-30T17:34:10;9.00;99.90
44775;DHT22;31340;51.402;0.016;2022-11-30T17:36:37;9.00;99.90
44775;DHT22;31340;51.402;0.016;2022-11-30T17:39:07;9.00;99.90
44775;DHT22;31340;51.402;0.016;2022-11-30T17:41:35;9.10;99.90
44775;DHT22;31340;51.402;0.016;2022-11-30T17:44:03;9.00;99.90
44775;DHT22;31340;51.402;0.016;2022-11-30T17:46:30;9.00;99.90
44775;DHT22;31340;51.402;0.016;2022-11-30T17:48:58;8.90;99.90
44775;DHT22;31340;51.402;0.016;2022-11-30T17:51:26;9.00;99.90
44775;DHT22;31340;51.402;0.016;2022-11-30T17:53:54;9.00;99.90
44775;DHT22;31340;51.402;0.016;2022-11-30T17:56:22;8.90;99.90
44775;DHT22;31340;51.402;0.016;2022-11-30T17:58:51;8.90;99.90
44775;DHT22;31340;51.402;0.016;2022-11-30T18:01:20;8.90;99.90
44775;DHT22;31340;51.402;0.016;2022-11-30T18:03:50;8.90;99.90
44775;DHT22;31340;51.402;0.016;2022-11-30T18:06:18;8.90;99.90
44775;DHT22;31340;51.402;0.016;2022-11-30T18:08:47;8.80;99.90
44775;DHT22;31340;51.402;0.016;2022-11-30T18:11:21;8.80;99.90
44775;DHT22;31340;51.402;0.016;2022-11-30T18:13:51;8.80;99.90
44775;DHT22;31340;51.402;0.016;2022-11-30T18:16:22;8.80;99.90
44775;DHT22;31340;51.402;0.016;2022-11-30T18:18:50;8.80;99.90
44775;DHT22;31340;51.402;0.016;2022-11-30T18:21:20;8.80;99.90
44775;DHT22;31340;51.402;0.016;2022-11-30T18:23:48;8.80;99.90
44775;DHT22;31340;51.402;0.016;2022-11-30T18:26:18;8.80;99.90
44775;DHT22;31340;51.402;0.016;2022-11-30T18:28:53;8.80;99.90
44775;DHT22;31340;51.402;0.016;2022-11-30T18:31:21;8.80;99.90
44775;DHT22;31340;51.402;0.016;2022-11-30T18:33:57;8.80;99.90